createdAt,value
2023-04-25T00:01:52.365Z,100089.38
2023-04-25T00:04:19.298Z,100083.38
2023-04-25T00:06:45.963Z,100093.44
2023-04-25T00:09:12.539Z,100093.78
2023-04-25T00:11:39.044Z,100086.91
2023-04-25T00:14:05.627Z,100087.25
2023-04-25T00:16:34.739Z,100089.25
2023-04-25T00:19:02.550Z,100098.63
2023-04-25T00:21:29.268Z,100094.44
2023-04-25T00:23:56.458Z,100104.66
2023-04-25T00:26:22.936Z,100104.00
2023-04-25T00:28:49.443Z,100105.00
2023-04-25T00:31:15.889Z,100107.84
2023-04-25T00:33:42.314Z,100118.56
2023-04-25T00:36:08.747Z,100116.91
2023-04-25T00:38:35.592Z,100119.59
2023-04-25T00:41:01.938Z,100124.94
2023-04-25T00:43:33.231Z,100115.22
2023-04-25T00:46:01.352Z,100120.75
2023-04-25T00:48:28.084Z,100123.59
2023-04-25T00:50:56.326Z,100126.44
2023-04-25T00:53:23.233Z,100121.25
2023-04-25T00:55:53.769Z,100117.88
2023-04-25T00:58:22.302Z,100121.59
2023-04-25T01:00:51.154Z,100118.91
2023-04-25T01:03:20.697Z,100122.56
2023-04-25T01:05:47.934Z,100120.75
2023-04-25T01:08:14.921Z,100123.44
2023-04-25T01:10:41.338Z,100119.75
2023-04-25T01:13:08.130Z,100121.59
2023-04-25T01:15:36.337Z,100125.78
2023-04-25T01:18:03.724Z,100121.25
2023-04-25T01:20:30.400Z,100120.22
2023-04-25T01:22:56.838Z,100131.13
2023-04-25T01:25:24.919Z,100126.59
2023-04-25T01:27:51.824Z,100135.66
2023-04-25T01:30:18.735Z,100135.66
2023-04-25T01:32:45.511Z,100135.97
2023-04-25T01:35:12.939Z,100140.69
2023-04-25T01:37:41.026Z,100140.00
2023-04-25T01:40:08.790Z,100148.19
2023-04-25T01:42:36.741Z,100148.19
2023-04-25T01:45:03.580Z,100150.22
2023-04-25T01:47:31.817Z,100150.38
2023-04-25T01:49:59.437Z,100148.84
2023-04-25T01:52:25.797Z,100152.03
2023-04-25T01:54:54.286Z,100151.69
2023-04-25T01:57:20.864Z,100158.38
2023-04-25T01:59:47.430Z,100167.72
2023-04-25T02:02:13.840Z,100161.88
2023-04-25T02:04:40.378Z,100164.88
2023-04-25T02:07:06.863Z,100165.38
2023-04-25T02:09:33.248Z,100167.53
2023-04-25T02:11:59.560Z,100173.19
2023-04-25T02:14:26.024Z,100173.53
2023-04-25T02:16:53.195Z,100175.84
2023-04-25T02:19:19.727Z,100181.53
2023-04-25T02:21:46.521Z,100178.34
2023-04-25T02:24:12.957Z,100184.03
2023-04-25T02:26:39.304Z,100182.66
2023-04-25T02:29:05.755Z,100183.81
2023-04-25T02:31:32.281Z,100183.97
2023-04-25T02:33:58.818Z,100195.81
2023-04-25T02:36:25.187Z,100189.81
2023-04-25T02:38:51.808Z,100194.34
2023-04-25T02:41:18.375Z,100185.63
2023-04-25T02:43:44.695Z,100190.97
2023-04-25T02:46:11.232Z,100198.31
2023-04-25T02:48:37.600Z,100203.66
2023-04-25T02:51:04.005Z,100196.66
2023-04-25T02:53:30.524Z,100201.31
2023-04-25T02:55:59.290Z,100197.81
2023-04-25T02:58:26.089Z,100200.63
2023-04-25T03:00:52.606Z,100200.63
2023-04-25T03:03:19.275Z,100209.66
2023-04-25T03:05:47.706Z,100211.47
2023-04-25T03:08:14.143Z,100211.47
2023-04-25T03:10:40.636Z,100208.97
2023-04-25T03:13:06.949Z,100203.63
2023-04-25T03:15:33.376Z,100204.59
2023-04-25T03:17:59.789Z,100215.31
2023-04-25T03:20:26.133Z,100222.34
2023-04-25T03:22:52.630Z,100210.97
2023-04-25T03:25:19.023Z,100214.47
2023-04-25T03:27:45.370Z,100221.66
2023-04-25T03:30:12.109Z,100222.69
2023-04-25T03:32:38.549Z,100222.69
2023-04-25T03:35:06.249Z,100230.84
2023-04-25T03:37:32.606Z,100229.19
2023-04-25T03:39:58.926Z,100232.00
2023-04-25T03:42:25.524Z,100237.66
2023-04-25T03:44:52.633Z,100236.84
2023-04-25T03:47:19.011Z,100248.50
2023-04-25T03:49:45.559Z,100248.50
2023-04-25T03:52:11.929Z,100254.03
2023-04-25T03:54:38.334Z,100249.53
2023-04-25T03:57:04.689Z,100256.72
2023-04-25T03:59:31.397Z,100251.38
2023-04-25T04:01:58.133Z,100259.53
2023-04-25T04:04:24.677Z,100258.00
2023-04-25T04:06:51.814Z,100261.69
2023-04-25T04:09:18.785Z,100262.66
2023-04-25T04:11:45.234Z,100269.03
2023-04-25T04:14:11.732Z,100276.22
2023-04-25T04:16:38.254Z,100272.69
2023-04-25T04:19:04.921Z,100276.34
2023-04-25T04:21:31.282Z,100272.84
2023-04-25T04:23:58.777Z,100279.03
2023-04-25T04:26:25.178Z,100280.03
2023-04-25T04:28:52.710Z,100277.50
2023-04-25T04:31:20.531Z,100282.84
2023-04-25T04:33:47.394Z,100282.19
2023-04-25T04:36:13.933Z,100286.66
2023-04-25T04:38:42.167Z,100295.69
2023-04-25T04:41:08.909Z,100286.00
2023-04-25T04:43:35.279Z,100296.72
2023-04-25T04:46:02.182Z,100296.84
2023-04-25T04:48:29.137Z,100293.34
2023-04-25T04:50:55.655Z,100304.03
2023-04-25T04:53:22.111Z,100305.00
2023-04-25T04:55:48.504Z,100301.69
2023-04-25T04:58:15.638Z,100305.19
2023-04-25T05:00:43.042Z,100314.03
2023-04-25T05:03:09.507Z,100311.38
2023-04-25T05:05:36.160Z,100317.53
2023-04-25T05:08:02.787Z,100317.53
2023-04-25T05:10:29.158Z,100329.94
2023-04-25T05:12:55.616Z,100330.78
2023-04-25T05:15:21.956Z,100333.28
2023-04-25T05:17:48.358Z,100331.47
2023-04-25T05:20:15.098Z,100329.63
2023-04-25T05:22:42.763Z,100340.16
2023-04-25T05:25:10.380Z,100348.88
2023-04-25T05:27:36.721Z,100345.22
2023-04-25T05:30:03.454Z,100347.56
2023-04-25T05:32:29.925Z,100346.44
2023-04-25T05:34:56.562Z,100351.47
2023-04-25T05:37:22.975Z,100349.47
2023-04-25T05:39:49.290Z,100352.81
2023-04-25T05:42:15.638Z,100357.88
2023-04-25T05:44:42.179Z,100362.91
2023-04-25T05:47:08.498Z,100361.59
2023-04-25T05:49:35.499Z,100370.19
2023-04-25T05:52:01.844Z,100370.69
2023-04-25T05:54:28.221Z,100367.69
2023-04-25T05:56:54.573Z,100373.44
2023-04-25T05:59:21.148Z,100375.97
2023-04-25T06:01:48.109Z,100379.16
2023-04-25T06:04:14.793Z,100377.00
2023-04-25T06:06:41.280Z,100375.84
2023-04-25T06:09:07.825Z,100383.41
2023-04-25T06:11:34.199Z,100383.09
2023-04-25T06:14:00.557Z,100392.66
2023-04-25T06:16:27.179Z,100388.00
2023-04-25T06:18:53.793Z,100390.34
2023-04-25T06:21:20.248Z,100390.03
2023-04-25T06:23:46.708Z,100387.22
2023-04-25T06:26:13.205Z,100392.25
2023-04-25T06:28:39.674Z,100398.09
2023-04-25T06:31:06.023Z,100402.16
2023-04-25T06:33:32.436Z,100391.69
2023-04-25T06:35:58.877Z,100395.56
2023-04-25T06:38:25.221Z,100396.75
2023-04-25T06:40:52.211Z,100402.31
2023-04-25T06:43:18.583Z,100404.38
2023-04-25T06:45:48.231Z,100404.53
2023-04-25T06:48:14.867Z,100409.94
2023-04-25T06:50:41.200Z,100411.00
2023-04-25T06:53:09.790Z,100411.19
2023-04-25T06:55:36.359Z,100420.44
2023-04-25T06:58:02.687Z,100415.25
2023-04-25T07:00:29.790Z,100417.44
2023-04-25T07:02:56.268Z,100421.34
2023-04-25T07:05:22.919Z,100424.38
2023-04-25T07:07:49.421Z,100423.91
2023-04-25T07:10:16.226Z,100427.78
2023-04-25T07:12:42.576Z,100427.94
2023-04-25T07:15:11.026Z,100424.63
2023-04-25T07:17:37.480Z,100418.59
2023-04-25T07:20:04.874Z,100422.44
2023-04-25T07:22:31.211Z,100433.38
2023-04-25T07:24:57.539Z,100438.56
2023-04-25T07:27:23.982Z,100439.59
2023-04-25T07:29:50.332Z,100432.72
2023-04-25T07:32:16.702Z,100434.06
2023-04-25T07:34:43.196Z,100438.09
2023-04-25T07:37:09.517Z,100438.78
2023-04-25T07:39:36.030Z,100448.19
2023-04-25T07:42:03.516Z,100441.78
2023-04-25T07:44:31.322Z,100451.53
2023-04-25T07:46:57.687Z,100448.53
2023-04-25T07:49:24.154Z,100459.25
2023-04-25T07:51:50.858Z,100459.25
2023-04-25T07:54:18.070Z,100457.56
2023-04-25T07:56:52.269Z,100457.22
2023-04-25T07:59:19.553Z,100463.94
2023-04-25T08:01:45.975Z,100459.56
2023-04-25T08:04:12.665Z,100469.31
2023-04-25T08:06:39.382Z,100474.47
2023-04-25T08:09:05.923Z,100481.34
2023-04-25T08:11:32.348Z,100483.34
2023-04-25T08:13:58.884Z,100487.03
2023-04-25T08:16:25.435Z,100494.75
2023-04-25T08:18:52.324Z,100482.84
2023-04-25T08:21:19.091Z,100490.56
2023-04-25T08:23:45.856Z,100483.72
2023-04-25T08:26:12.382Z,100493.81
2023-04-25T08:28:39.251Z,100491.13
2023-04-25T08:31:05.841Z,100506.22
2023-04-25T08:33:33.703Z,100503.41
2023-04-25T08:36:00.174Z,100508.44
2023-04-25T08:38:26.777Z,100507.09
2023-04-25T08:40:53.221Z,100503.22
2023-04-25T08:43:20.985Z,100510.94
2023-04-25T08:45:48.257Z,100513.28
2023-04-25T08:48:16.808Z,100507.59
2023-04-25T08:50:54.298Z,100510.94
2023-04-25T08:53:28.454Z,100518.31
2023-04-25T08:55:57.143Z,100508.22
2023-04-25T08:58:24.436Z,100524.38
2023-04-25T09:00:52.997Z,100521.66
2023-04-25T09:03:19.920Z,100535.47
2023-04-25T09:05:46.940Z,100548.59
2023-04-25T09:08:13.782Z,100542.88
2023-04-25T09:10:41.449Z,100537.16
2023-04-25T09:13:07.901Z,100540.19
2023-04-25T09:15:34.352Z,100551.22
2023-04-25T09:18:01.180Z,100562.69
2023-04-25T09:20:27.756Z,100560.69
2023-04-25T09:23:07.746Z,100560.53
2023-04-25T09:25:41.504Z,100568.41
2023-04-25T09:28:07.911Z,100567.72
2023-04-25T09:30:37.508Z,100566.06
2023-04-25T09:33:08.617Z,100570.41
2023-04-25T09:35:41.027Z,100568.06
2023-04-25T09:38:13.140Z,100570.41
2023-04-25T09:40:46.446Z,100564.34
2023-04-25T09:43:23.649Z,100561.44
2023-04-25T09:45:52.668Z,100560.69
2023-04-25T09:48:21.060Z,100575.47
2023-04-25T09:51:05.108Z,100564.31
2023-04-25T09:53:33.013Z,100553.50
2023-04-25T09:56:03.940Z,100563.59
2023-04-25T09:58:32.378Z,100572.81
2023-04-25T10:01:01.990Z,100563.84
2023-04-25T10:03:31.833Z,100568.00
2023-04-25T10:06:01.284Z,100568.94
2023-04-25T10:08:34.149Z,100569.78
2023-04-25T10:11:03.650Z,100586.88
2023-04-25T10:13:31.874Z,100579.31
2023-04-25T10:16:05.405Z,100584.69
2023-04-25T10:18:33.472Z,100593.16
2023-04-25T10:21:02.749Z,100594.88
2023-04-25T10:23:31.407Z,100595.38
2023-04-25T10:25:58.572Z,100608.50
2023-04-25T10:28:25.258Z,100592.56
2023-04-25T10:31:04.947Z,100585.97
2023-04-25T10:33:39.262Z,100590.66
2023-04-25T10:36:13.713Z,100598.22
2023-04-25T10:38:40.640Z,100590.81
2023-04-25T10:41:11.732Z,100588.38
2023-04-25T10:43:45.467Z,100594.28
2023-04-25T10:46:19.259Z,100605.53
2023-04-25T10:48:59.099Z,100587.81
2023-04-25T10:51:51.678Z,100593.31
2023-04-25T10:54:24.077Z,100617.53
2023-04-25T10:56:51.785Z,100609.75
2023-04-25T10:59:19.757Z,100592.81
2023-04-25T11:01:56.775Z,100594.44
2023-04-25T11:04:26.850Z,100598.06
2023-04-25T11:07:06.548Z,100607.31
2023-04-25T11:09:35.957Z,100622.66
2023-04-25T11:12:02.476Z,100621.06
2023-04-25T11:14:28.972Z,100616.09
2023-04-25T11:17:00.748Z,100624.78
2023-04-25T11:19:28.742Z,100627.03
2023-04-25T11:21:59.810Z,100622.91
2023-04-25T11:24:28.360Z,100632.69
2023-04-25T11:26:55.103Z,100631.38
2023-04-25T11:29:27.343Z,100634.75
2023-04-25T11:31:56.859Z,100621.09
2023-04-25T11:34:23.276Z,100627.16
2023-04-25T11:36:49.711Z,100629.47
2023-04-25T11:39:16.161Z,100629.13
2023-04-25T11:41:45.842Z,100637.03
2023-04-25T11:44:12.835Z,100653.22
2023-04-25T11:46:39.249Z,100630.16
2023-04-25T11:49:05.892Z,100629.47
2023-04-25T11:51:46.077Z,100617.69
2023-04-25T11:54:13.095Z,100628.13
2023-04-25T11:56:43.795Z,100628.06
2023-04-25T11:59:10.570Z,100635.72
2023-04-25T12:01:39.476Z,100664.25
2023-04-25T12:04:14.535Z,100623.50
2023-04-25T12:06:43.926Z,100634.53
2023-04-25T12:09:14.198Z,100637.97
2023-04-25T12:11:47.112Z,100662.91
2023-04-25T12:14:21.853Z,100670.06
2023-04-25T12:16:49.515Z,100672.75
2023-04-25T12:19:21.142Z,100684.63
2023-04-25T12:24:24.350Z,100691.81
2023-04-25T12:26:59.910Z,100703.50
2023-04-25T12:29:31.775Z,100685.00
2023-04-25T12:32:04.826Z,100695.44
2023-04-25T12:34:33.293Z,100696.25
2023-04-25T12:36:59.771Z,100688.66
2023-04-25T12:39:26.803Z,100678.91
2023-04-25T12:41:57.127Z,100675.03
2023-04-25T12:44:23.532Z,100675.34
2023-04-25T12:46:50.992Z,100674.50
2023-04-25T12:49:19.167Z,100674.19
2023-04-25T12:51:46.016Z,100673.19
2023-04-25T12:54:12.659Z,100664.84
2023-04-25T12:56:39.352Z,100666.88
2023-04-25T12:59:05.912Z,100689.91
2023-04-25T13:01:34.697Z,100691.25
2023-04-25T13:04:02.896Z,100681.13
2023-04-25T13:06:31.102Z,100706.50
2023-04-25T13:08:57.538Z,100714.19
2023-04-25T13:11:23.881Z,100699.56
2023-04-25T13:13:50.610Z,100695.34
2023-04-25T13:16:17.490Z,100700.41
2023-04-25T13:18:43.995Z,100696.72
2023-04-25T13:21:12.403Z,100721.63
2023-04-25T13:23:39.158Z,100702.47
2023-04-25T13:26:05.805Z,100720.81
2023-04-25T13:28:32.289Z,100705.66
2023-04-25T13:30:59.004Z,100709.53
2023-04-25T13:33:25.565Z,100697.94
2023-04-25T13:35:54.705Z,100702.13
2023-04-25T13:38:22.431Z,100719.13
2023-04-25T13:40:49.596Z,100705.84
2023-04-25T13:43:16.127Z,100706.19
2023-04-25T13:45:42.519Z,100702.97
2023-04-25T13:48:09.019Z,100700.63
2023-04-25T13:50:36.777Z,100700.47
2023-04-25T13:53:03.187Z,100702.00
2023-04-25T13:55:29.624Z,100709.22
2023-04-25T13:57:56.041Z,100697.41
2023-04-25T14:00:22.585Z,100706.97
2023-04-25T14:02:50.741Z,100685.94
2023-04-25T14:05:17.502Z,100693.13
2023-04-25T14:07:43.953Z,100687.66
2023-04-25T14:10:10.579Z,100704.63
2023-04-25T14:12:37.053Z,100701.72
2023-04-25T14:15:04.399Z,100713.16
2023-04-25T14:17:30.896Z,100725.50
2023-04-25T14:19:57.323Z,100722.16
2023-04-25T14:22:23.873Z,100733.69
2023-04-25T14:24:50.302Z,100729.34
2023-04-25T14:27:16.730Z,100714.91
2023-04-25T14:29:43.953Z,100727.72
2023-04-25T14:32:11.260Z,100726.88
2023-04-25T14:34:37.615Z,100726.47
2023-04-25T14:37:04.239Z,100725.75
2023-04-25T14:39:30.574Z,100717.63
2023-04-25T14:41:57.008Z,100726.66
2023-04-25T14:44:23.428Z,100727.97
2023-04-25T14:46:52.524Z,100729.50
2023-04-25T14:49:19.149Z,100727.16
2023-04-25T14:51:45.599Z,100726.34
2023-04-25T14:54:12.966Z,100745.38
2023-04-25T14:56:39.408Z,100733.13
2023-04-25T14:59:05.733Z,100758.50
2023-04-25T15:01:32.723Z,100751.81
2023-04-25T15:03:59.768Z,100754.16
2023-04-25T15:06:27.998Z,100750.13
2023-04-25T15:08:54.437Z,100752.66
2023-04-25T15:11:21.507Z,100753.16
2023-04-25T15:13:47.938Z,100763.75
2023-04-25T15:16:14.466Z,100748.47
2023-04-25T15:18:41.638Z,100753.69
2023-04-25T15:21:08.251Z,100759.75
2023-04-25T15:23:34.766Z,100752.22
2023-04-25T15:26:01.123Z,100755.25
2023-04-25T15:28:27.553Z,100746.53
2023-04-25T15:30:54.394Z,100745.69
2023-04-25T15:33:20.829Z,100758.13
2023-04-25T15:35:47.396Z,100769.75
2023-04-25T15:38:13.815Z,100766.22
2023-04-25T15:40:41.035Z,100772.78
2023-04-25T15:43:08.130Z,100798.84
2023-04-25T15:58:00.701Z,100778.03
2023-04-25T16:00:27.424Z,100781.47
2023-04-25T16:02:54.038Z,100782.66
2023-04-25T16:05:20.848Z,100767.06
2023-04-25T16:07:47.832Z,100765.22
2023-04-25T16:10:19.759Z,100768.75
2023-04-25T16:12:48.290Z,100775.81
2023-04-25T16:15:14.716Z,100783.88
2023-04-25T16:17:41.343Z,100777.19
2023-04-25T16:20:12.459Z,100779.22
2023-04-25T16:22:40.232Z,100772.34
2023-04-25T16:25:07.996Z,100784.28
2023-04-25T16:27:35.459Z,100782.66
2023-04-25T16:30:02.331Z,100796.59
2023-04-25T16:32:28.804Z,100786.19
2023-04-25T16:34:56.993Z,100776.00
2023-04-25T16:37:25.453Z,100789.59
2023-04-25T16:39:51.773Z,100797.88
2023-04-25T16:42:18.212Z,100803.44
2023-04-25T16:44:44.693Z,100799.25
2023-04-25T16:47:12.206Z,100803.31
2023-04-25T16:49:41.078Z,100800.97
2023-04-25T16:52:07.426Z,100806.81
2023-04-25T16:54:33.802Z,100820.34
2023-04-25T16:57:01.308Z,100806.22
2023-04-25T16:59:27.728Z,100815.59
2023-04-25T17:01:54.105Z,100818.53
2023-04-25T17:04:20.511Z,100845.69
2023-04-25T17:06:46.955Z,100844.44
2023-04-25T17:09:13.282Z,100860.72
2023-04-25T17:11:39.824Z,100886.38
2023-04-25T17:14:06.389Z,100865.13
2023-04-25T17:16:37.186Z,100865.63
2023-04-25T17:19:05.491Z,100853.38
2023-04-25T17:21:32.175Z,100859.72
2023-04-25T17:23:59.213Z,100855.28
2023-04-25T17:26:26.510Z,100850.53
2023-04-25T17:28:54.013Z,100855.06
2023-04-25T17:31:22.952Z,100858.16
2023-04-25T17:33:49.851Z,100853.38
2023-04-25T17:36:16.269Z,100859.25
2023-04-25T17:38:42.608Z,100858.38
2023-04-25T17:41:10.559Z,100861.22
2023-04-25T17:43:36.965Z,100851.09
2023-04-25T17:46:03.424Z,100863.25
2023-04-25T17:48:31.584Z,100866.69
2023-04-25T17:50:58.485Z,100854.97
2023-04-25T17:53:25.319Z,100862.84
2023-04-25T17:55:51.843Z,100855.91
2023-04-25T17:58:18.289Z,100861.91
2023-04-25T18:00:44.681Z,100852.53
2023-04-25T18:03:11.299Z,100865.94
2023-04-25T18:05:37.777Z,100864.41
2023-04-25T18:08:05.918Z,100867.72
2023-04-25T18:10:33.874Z,100877.53
2023-04-25T18:13:00.469Z,100873.13
2023-04-25T18:15:27.017Z,100881.94
2023-04-25T18:17:53.495Z,100877.19
2023-04-25T18:20:20.584Z,100885.69
2023-04-25T18:22:47.042Z,100892.34
2023-04-25T18:25:13.965Z,100900.00
2023-04-25T18:27:41.237Z,100899.66
2023-04-25T18:30:10.575Z,100914.34
2023-04-25T18:32:37.773Z,100915.22
2023-04-25T18:35:04.952Z,100922.63
2023-04-25T18:37:31.345Z,100917.91
2023-04-25T18:39:58.471Z,100919.69
2023-04-25T18:42:24.995Z,100921.31
2023-04-25T18:44:51.600Z,100922.88
2023-04-25T18:47:18.257Z,100928.56
2023-04-25T18:49:45.253Z,100931.94
2023-04-25T18:52:12.770Z,100937.88
2023-04-25T18:54:39.250Z,100940.84
2023-04-25T18:57:06.420Z,100942.81
2023-04-25T18:59:33.565Z,100937.75
2023-04-25T19:02:05.297Z,100941.44
2023-04-25T19:04:32.263Z,100953.09
2023-04-25T19:06:58.988Z,100946.91
2023-04-25T19:09:25.579Z,100953.41
2023-04-25T19:11:52.095Z,100956.34
2023-04-25T19:14:18.579Z,100954.81
2023-04-25T19:16:45.015Z,100950.59
2023-04-25T19:19:11.395Z,100960.56
2023-04-25T19:21:37.861Z,100953.66
2023-04-25T19:24:05.211Z,100961.00
2023-04-25T19:26:32.226Z,100958.59
2023-04-25T19:29:13.450Z,100961.44
2023-04-25T19:31:41.335Z,100962.56
2023-04-25T19:34:09.031Z,100958.34
2023-04-25T19:36:38.378Z,100962.97
2023-04-25T19:39:07.084Z,100963.25
2023-04-25T19:41:38.215Z,100979.59
2023-04-25T19:44:07.267Z,100975.38
2023-04-25T19:46:35.121Z,100964.91
2023-04-25T19:49:01.891Z,100966.03
2023-04-25T19:51:28.770Z,100972.38
2023-04-25T19:53:55.566Z,100967.16
2023-04-25T19:56:22.764Z,100972.50
2023-04-25T19:58:49.456Z,100977.00
2023-04-25T20:01:17.035Z,100983.34
2023-04-25T20:03:43.498Z,100986.03
2023-04-25T20:06:11.398Z,100986.03
2023-04-25T20:08:37.803Z,100985.19
2023-04-25T20:11:04.242Z,100988.00
2023-04-25T20:13:31.582Z,100989.72
2023-04-25T20:16:00.033Z,100994.34
2023-04-25T20:18:29.127Z,100989.97
2023-04-25T20:20:55.543Z,100990.22
2023-04-25T20:23:22.103Z,100993.91
2023-04-25T20:25:48.509Z,100988.84
2023-04-25T20:28:14.977Z,101006.00
2023-04-25T20:30:41.733Z,100994.72
2023-04-25T20:33:09.119Z,100995.97
2023-04-25T20:35:35.530Z,100994.56
2023-04-25T20:38:01.895Z,100999.44
2023-04-25T20:40:28.268Z,100998.97
2023-04-25T20:42:56.172Z,100995.75
2023-04-25T20:45:24.295Z,101002.47
2023-04-25T20:47:50.751Z,100997.66
2023-04-25T20:50:17.242Z,101005.25
2023-04-25T20:52:44.604Z,101004.81
2023-04-25T20:55:11.910Z,101003.50
2023-04-25T20:57:38.314Z,100999.53
2023-04-25T21:00:25.321Z,101003.47
2023-04-25T21:02:52.698Z,100999.50
2023-04-25T21:05:22.077Z,101001.72
2023-04-25T21:07:49.922Z,101004.78
2023-04-25T21:10:17.154Z,101001.66
2023-04-25T21:12:50.140Z,101003.88
2023-04-25T21:15:21.184Z,101006.94
2023-04-25T21:17:48.564Z,101009.03
2023-04-25T21:20:17.759Z,101005.06
2023-04-25T21:22:53.774Z,101007.13
2023-04-25T21:25:31.009Z,101012.72
2023-04-25T21:27:58.719Z,101012.25
2023-04-25T21:30:26.064Z,101015.19
2023-04-25T21:32:53.152Z,101015.44
2023-04-25T21:35:21.202Z,101020.31
2023-04-25T21:37:47.708Z,101020.59
2023-04-25T21:40:14.683Z,101020.97
2023-04-25T21:42:42.262Z,101019.53
2023-04-25T21:45:09.026Z,101024.25
2023-04-25T21:47:35.852Z,101022.84
2023-04-25T21:50:02.256Z,101016.06
2023-04-25T21:52:28.760Z,101020.91
2023-04-25T21:54:55.775Z,101019.50
2023-04-25T21:57:22.194Z,101023.38
2023-04-25T21:59:48.595Z,101029.91
2023-04-25T22:02:15.199Z,101024.00
2023-04-25T22:04:47.137Z,101032.38
2023-04-25T22:07:14.326Z,101030.94
2023-04-25T22:09:53.710Z,101024.16
2023-04-25T22:12:21.150Z,101022.72
2023-04-25T22:14:47.681Z,101023.06
2023-04-25T22:17:14.018Z,101020.66
2023-04-25T22:19:40.407Z,101023.69
2023-04-25T22:22:06.750Z,101030.97
2023-04-25T22:24:33.718Z,101029.53
2023-04-25T22:27:00.380Z,101037.78
2023-04-25T22:29:26.698Z,101041.53
2023-04-25T22:31:53.108Z,101042.63
2023-04-25T22:34:19.865Z,101049.03
2023-04-25T22:36:46.201Z,101046.72
2023-04-25T22:39:15.042Z,101054.84
2023-04-25T22:41:41.905Z,101051.69
2023-04-25T22:44:08.218Z,101054.59
2023-04-25T22:46:34.786Z,101056.53
2023-04-25T22:49:01.238Z,101057.75
2023-04-25T22:51:27.548Z,101058.00
2023-04-25T22:53:53.956Z,101057.38
2023-04-25T22:56:20.319Z,101065.59
2023-04-25T22:58:46.709Z,101061.34
2023-04-25T23:01:13.290Z,101064.25
2023-04-25T23:03:40.210Z,101075.25
2023-04-25T23:06:06.831Z,101066.69
2023-04-25T23:08:33.290Z,101066.16
2023-04-25T23:10:59.624Z,101069.16
2023-04-25T23:13:26.364Z,101072.91
2023-04-25T23:15:53.075Z,101073.13
2023-04-25T23:18:19.428Z,101065.50
2023-04-25T23:20:46.835Z,101073.72
2023-04-25T23:23:13.175Z,101071.31
2023-04-25T23:25:42.926Z,101071.53
2023-04-25T23:28:09.276Z,101077.09
2023-04-25T23:30:35.627Z,101078.19
2023-04-25T23:33:02.022Z,101087.25
2023-04-25T23:35:28.715Z,101084.81
2023-04-25T23:37:55.541Z,101085.03
2023-04-25T23:40:22.180Z,101079.94
2023-04-25T23:42:48.548Z,101083.81
2023-04-25T23:45:16.377Z,101083.06
2023-04-25T23:47:43.121Z,101080.63
2023-04-25T23:50:10.095Z,101078.22
2023-04-25T23:52:36.476Z,101088.94
2023-04-25T23:55:05.279Z,101077.72
2023-04-25T23:57:32.296Z,101076.97
2023-04-25T23:59:58.884Z,101084.34
